createdAt,value
2023-03-11T00:00:25.577Z,7.20
2023-03-11T00:03:14.300Z,9.20
2023-03-11T00:05:43.986Z,7.80
2023-03-11T00:08:16.720Z,7.50
2023-03-11T00:10:45.740Z,9.80
2023-03-11T00:13:14.873Z,8.00
2023-03-11T00:15:43.531Z,7.40
2023-03-11T00:18:11.774Z,7.60
2023-03-11T00:20:40.664Z,9.90
2023-03-11T00:23:09.158Z,6.00
2023-03-11T00:25:37.670Z,5.90
2023-03-11T00:28:07.506Z,7.70
2023-03-11T00:30:35.597Z,5.60
2023-03-11T00:33:04.181Z,7.20
2023-03-11T00:35:33.675Z,6.00
2023-03-11T00:38:04.039Z,7.10
2023-03-11T00:40:33.088Z,8.20
2023-03-11T00:43:01.274Z,7.50
2023-03-11T00:45:29.875Z,6.70
2023-03-11T00:47:57.746Z,7.50
2023-03-11T00:50:27.574Z,9.50
2023-03-11T00:52:55.637Z,7.30
2023-03-11T00:55:25.284Z,9.40
2023-03-11T00:57:57.580Z,8.60
2023-03-11T01:00:26.308Z,9.30
2023-03-11T01:02:54.718Z,8.00
2023-03-11T01:05:24.268Z,8.70
2023-03-11T01:07:52.089Z,8.20
2023-03-11T01:10:20.329Z,10.10
2023-03-11T01:12:48.618Z,9.80
2023-03-11T01:15:21.862Z,9.90
2023-03-11T01:17:49.849Z,9.30
2023-03-11T01:20:17.906Z,9.10
2023-03-11T01:22:45.855Z,6.10
2023-03-11T01:25:14.565Z,6.30
2023-03-11T01:27:42.699Z,5.50
2023-03-11T01:30:13.331Z,6.50
2023-03-11T01:32:41.155Z,5.00
2023-03-11T01:35:10.842Z,6.60
2023-03-11T01:37:38.783Z,6.70
2023-03-11T01:40:07.853Z,5.10
2023-03-11T01:42:35.803Z,4.40
2023-03-11T01:47:59.864Z,7.20
2023-03-11T01:50:31.679Z,5.70
2023-03-11T01:52:59.558Z,5.40
2023-03-11T01:55:28.668Z,4.50
2023-03-11T01:57:57.040Z,5.10
2023-03-11T02:00:25.037Z,6.10
2023-03-11T02:02:53.779Z,4.40
2023-03-11T02:05:22.693Z,5.00
2023-03-11T02:07:51.428Z,5.80
2023-03-11T02:10:19.820Z,4.40
2023-03-11T02:12:49.009Z,3.70
2023-03-11T02:15:16.939Z,3.70
2023-03-11T02:17:44.880Z,3.30
2023-03-11T02:20:12.695Z,2.70
2023-03-11T02:22:41.736Z,2.80
2023-03-11T02:25:18.597Z,2.20
2023-03-11T02:27:49.315Z,3.40
2023-03-11T02:30:18.255Z,2.60
2023-03-11T02:32:49.390Z,2.20
2023-03-11T02:35:17.467Z,2.20
2023-03-11T02:37:50.363Z,2.10
2023-03-11T02:40:24.341Z,3.00
2023-03-11T02:42:54.392Z,2.00
2023-03-11T02:45:24.629Z,2.70
2023-03-11T02:47:53.080Z,1.50
2023-03-11T02:50:21.174Z,1.50
2023-03-11T02:52:49.713Z,3.50
2023-03-11T02:55:18.350Z,1.30
2023-03-11T02:57:47.293Z,0.90
2023-03-11T03:00:16.925Z,2.10
2023-03-11T03:02:45.666Z,1.40
2023-03-11T03:05:14.506Z,1.20
2023-03-11T03:07:42.435Z,1.30
2023-03-11T03:10:10.771Z,1.10
2023-03-11T03:12:38.602Z,1.50
2023-03-11T03:15:07.035Z,1.20
2023-03-11T03:17:34.976Z,1.20
2023-03-11T03:20:06.334Z,1.90
2023-03-11T03:22:34.204Z,1.10
2023-03-11T03:25:02.121Z,0.90
2023-03-11T03:27:30.730Z,0.80
2023-03-11T03:29:58.491Z,0.70
2023-03-11T03:32:43.933Z,0.90
2023-03-11T03:35:12.228Z,0.60
2023-03-11T03:37:40.219Z,0.70
2023-03-11T03:40:08.973Z,0.50
2023-03-11T03:42:37.382Z,0.50
2023-03-11T03:45:06.501Z,0.70
2023-03-11T03:47:35.068Z,0.60
2023-03-11T03:50:03.883Z,0.70
2023-03-11T03:52:31.742Z,0.90
2023-03-11T03:54:59.935Z,0.70
2023-03-11T03:57:28.787Z,1.10
2023-03-11T03:59:56.634Z,0.60
2023-03-11T04:02:24.726Z,0.60
2023-03-11T04:04:53.042Z,0.60
2023-03-11T04:07:20.876Z,3.50
2023-03-11T04:09:48.832Z,7.70
2023-03-11T04:12:17.788Z,7.70
2023-03-11T04:14:45.663Z,10.80
2023-03-11T04:17:14.041Z,14.50
2023-03-11T04:19:41.850Z,13.80
2023-03-11T04:22:09.736Z,11.40
2023-03-11T04:24:37.636Z,11.10
2023-03-11T04:27:05.448Z,11.10
2023-03-11T04:29:33.338Z,9.90
2023-03-11T04:32:01.088Z,10.90
2023-03-11T04:34:28.880Z,9.20
2023-03-11T04:36:56.695Z,10.60
2023-03-11T04:39:24.811Z,10.50
2023-03-11T04:41:52.601Z,10.00
2023-03-11T04:44:20.545Z,8.80
2023-03-11T04:46:48.366Z,8.40
2023-03-11T04:49:16.223Z,12.10
2023-03-11T04:51:44.001Z,8.70
2023-03-11T04:54:11.902Z,8.20
2023-03-11T04:56:39.761Z,8.00
2023-03-11T04:59:07.660Z,6.10
2023-03-11T05:01:35.567Z,5.90
2023-03-11T05:04:03.719Z,6.30
2023-03-11T05:06:31.659Z,5.40
2023-03-11T05:08:59.500Z,5.10
2023-03-11T05:11:27.471Z,4.50
2023-03-11T05:13:55.326Z,4.30
2023-03-11T05:16:23.457Z,5.00
2023-03-11T05:18:51.393Z,4.30
2023-03-11T05:21:19.292Z,6.00
2023-03-11T05:23:47.227Z,5.10
2023-03-11T05:26:15.280Z,5.40
2023-03-11T05:28:43.200Z,5.00
2023-03-11T05:31:11.189Z,4.80
2023-03-11T05:33:39.184Z,5.40
2023-03-11T05:36:08.490Z,6.30
2023-03-11T05:38:37.106Z,6.00
2023-03-11T05:41:06.514Z,6.80
2023-03-11T05:43:34.425Z,4.70
2023-03-11T05:46:02.252Z,5.70
2023-03-11T05:48:30.148Z,6.10
2023-03-11T05:50:58.316Z,7.10
2023-03-11T05:53:26.229Z,8.30
2023-03-11T05:55:57.883Z,6.80
2023-03-11T05:58:25.854Z,7.00
2023-03-11T06:00:54.243Z,7.10
2023-03-11T06:03:22.718Z,6.70
2023-03-11T06:05:51.106Z,7.00
2023-03-11T06:08:19.659Z,7.90
2023-03-11T06:10:49.010Z,7.00
2023-03-11T06:13:16.991Z,9.30
2023-03-11T06:15:46.114Z,11.00
2023-03-11T06:18:14.108Z,7.80
2023-03-11T06:20:41.998Z,6.30
2023-03-11T06:23:09.878Z,6.40
2023-03-11T06:25:38.127Z,7.80
2023-03-11T06:28:06.048Z,6.00
2023-03-11T06:30:34.066Z,5.40
2023-03-11T06:33:02.028Z,6.20
2023-03-11T06:35:30.185Z,5.60
2023-03-11T06:37:58.350Z,7.20
2023-03-11T06:40:26.150Z,6.70
2023-03-11T06:42:53.953Z,7.70
2023-03-11T06:45:22.041Z,5.70
2023-03-11T06:47:50.200Z,6.50
2023-03-11T06:50:18.391Z,7.30
2023-03-11T06:52:46.336Z,7.90
2023-03-11T06:55:14.206Z,7.90
2023-03-11T07:01:59.219Z,6.30
2023-03-11T07:04:27.398Z,5.80
2023-03-11T07:06:55.812Z,5.30
2023-03-11T07:09:25.404Z,5.70
2023-03-11T07:11:53.935Z,6.30
2023-03-11T07:14:22.119Z,6.00
2023-03-11T07:16:50.173Z,6.40
2023-03-11T07:19:18.054Z,6.30
2023-03-11T07:21:45.932Z,6.60
2023-03-11T07:24:15.139Z,7.00
2023-03-11T07:26:44.478Z,7.30
2023-03-11T07:29:12.674Z,9.90
2023-03-11T07:31:41.598Z,9.60
2023-03-11T07:34:12.263Z,6.20
2023-03-11T07:36:42.086Z,8.10
2023-03-11T07:39:14.883Z,7.10
2023-03-11T07:41:45.720Z,7.00
2023-03-11T07:44:14.448Z,6.50
2023-03-11T07:46:42.427Z,7.50
2023-03-11T07:49:10.987Z,7.00
2023-03-11T07:51:41.055Z,7.80
2023-03-11T07:54:10.323Z,6.00
2023-03-11T07:56:38.498Z,7.00
2023-03-11T07:59:06.489Z,6.60
2023-03-11T08:01:40.699Z,7.00
2023-03-11T08:04:11.355Z,7.60
2023-03-11T08:06:41.775Z,6.40
2023-03-11T08:09:10.030Z,5.00
2023-03-11T08:11:37.927Z,5.50
2023-03-11T08:14:06.402Z,4.70
2023-03-11T08:16:34.595Z,7.80
2023-03-11T08:19:02.514Z,5.00
2023-03-11T08:21:32.443Z,3.90
2023-03-11T08:24:01.493Z,5.50
2023-03-11T08:26:30.222Z,5.20
2023-03-11T08:28:58.824Z,4.50
2023-03-11T08:31:31.145Z,4.30
2023-03-11T08:34:01.509Z,4.50
2023-03-11T08:36:29.800Z,3.70
2023-03-11T08:38:57.918Z,4.60
2023-03-11T08:41:26.410Z,4.40
2023-03-11T08:43:54.642Z,4.60
2023-03-11T08:46:24.991Z,6.10
2023-03-11T08:48:58.639Z,6.50
2023-03-11T08:51:28.973Z,5.40
2023-03-11T08:53:57.173Z,4.60
2023-03-11T08:56:25.289Z,3.90
2023-03-11T08:58:53.551Z,4.50
2023-03-11T09:01:23.143Z,4.60
2023-03-11T09:03:51.638Z,4.20
2023-03-11T09:06:20.044Z,4.10
2023-03-11T09:08:48.981Z,4.30
2023-03-11T09:11:18.169Z,5.10
2023-03-11T09:13:46.195Z,6.20
2023-03-11T09:16:18.704Z,4.00
2023-03-11T09:18:46.763Z,4.90
2023-03-11T09:21:14.869Z,3.90
2023-03-11T09:23:44.484Z,5.20
2023-03-11T09:26:13.316Z,4.60
2023-03-11T09:28:41.942Z,5.00
2023-03-11T09:31:10.092Z,5.60
2023-03-11T09:33:38.838Z,5.30
2023-03-11T09:36:07.818Z,5.40
2023-03-11T09:38:35.769Z,5.80
2023-03-11T09:41:03.962Z,5.00
2023-03-11T09:43:52.168Z,6.00
2023-03-11T09:46:20.293Z,5.30
2023-03-11T09:49:17.312Z,5.10
2023-03-11T09:51:57.709Z,5.80
2023-03-11T09:54:33.320Z,4.90
2023-03-11T09:57:02.752Z,6.20
2023-03-11T09:59:31.906Z,5.00
2023-03-11T10:02:00.639Z,5.60
2023-03-11T10:04:55.085Z,5.30
2023-03-11T10:07:27.270Z,4.30
2023-03-11T10:09:59.596Z,6.30
2023-03-11T10:12:44.704Z,6.50
2023-03-11T10:15:16.007Z,4.80
2023-03-11T10:18:05.167Z,5.10
2023-03-11T10:20:42.237Z,4.30
2023-03-11T10:23:13.347Z,5.60
2023-03-11T10:26:00.128Z,6.00
2023-03-11T10:28:33.065Z,5.30
2023-03-11T10:31:20.457Z,4.70
2023-03-11T10:34:07.138Z,4.30
2023-03-11T10:36:42.370Z,4.40
2023-03-11T10:39:11.266Z,5.40
2023-03-11T10:42:06.027Z,5.10
2023-03-11T10:44:35.419Z,5.40
2023-03-11T10:47:05.230Z,5.00
2023-03-11T10:49:34.241Z,6.30
2023-03-11T10:52:03.538Z,6.10
2023-03-11T10:54:36.047Z,6.50
2023-03-11T10:57:06.204Z,5.70
2023-03-11T10:59:37.692Z,7.60
2023-03-11T11:02:26.376Z,7.50
2023-03-11T11:05:03.796Z,7.60
2023-03-11T11:07:33.701Z,5.20
2023-03-11T11:10:21.319Z,6.80
2023-03-11T11:12:53.823Z,8.70
2023-03-11T11:15:27.913Z,7.60
2023-03-11T11:17:57.897Z,6.30
2023-03-11T11:20:26.687Z,5.30
2023-03-11T11:22:59.036Z,5.80
2023-03-11T11:25:38.143Z,7.30
2023-03-11T11:28:15.461Z,7.50
2023-03-11T11:30:53.513Z,8.10
2023-03-11T11:33:24.174Z,6.10
2023-03-11T11:35:53.817Z,4.30
2023-03-11T11:38:24.203Z,5.10
2023-03-11T11:40:53.153Z,5.10
2023-03-11T11:43:43.121Z,6.10
2023-03-11T11:46:31.678Z,4.30
2023-03-11T11:49:12.476Z,4.60
2023-03-11T11:51:47.679Z,4.30
2023-03-11T11:54:17.650Z,2.90
2023-03-11T11:56:46.163Z,5.20
2023-03-11T11:59:16.944Z,4.80
2023-03-11T12:02:20.699Z,4.20
2023-03-11T12:04:57.110Z,4.30
2023-03-11T12:07:41.344Z,4.00
2023-03-11T12:10:23.436Z,5.70
2023-03-11T12:13:06.080Z,3.10
2023-03-11T12:15:37.263Z,4.20
2023-03-11T12:18:09.852Z,3.60
2023-03-11T12:20:42.487Z,4.00
2023-03-11T12:23:29.662Z,2.90
2023-03-11T12:26:10.852Z,3.90
2023-03-11T12:28:43.908Z,3.30
2023-03-11T12:31:13.364Z,2.70
2023-03-11T12:33:51.810Z,3.20
2023-03-11T12:36:32.463Z,3.90
2023-03-11T12:43:36.465Z,4.60
2023-03-11T12:46:04.149Z,4.00
2023-03-11T12:48:36.135Z,4.10
2023-03-11T12:51:05.333Z,2.90
2023-03-11T12:53:43.214Z,3.50
2023-03-11T12:56:19.289Z,5.90
2023-03-11T12:58:52.154Z,2.70
2023-03-11T13:01:43.823Z,5.40
2023-03-11T13:04:29.451Z,3.60
2023-03-11T13:07:16.683Z,2.60
2023-03-11T13:09:44.235Z,5.10
2023-03-11T13:12:29.465Z,4.70
2023-03-11T13:15:22.386Z,4.60
2023-03-11T13:18:08.046Z,3.70
2023-03-11T13:20:34.845Z,3.40
2023-03-11T13:23:01.699Z,3.70
2023-03-11T13:25:50.513Z,4.00
2023-03-11T13:28:37.466Z,5.20
2023-03-11T13:31:06.117Z,2.30
2023-03-11T13:33:53.106Z,3.30
2023-03-11T13:36:32.555Z,4.20
2023-03-11T13:39:19.655Z,2.90
2023-03-11T13:41:48.409Z,5.80
2023-03-11T13:44:19.170Z,3.70
2023-03-11T13:46:57.859Z,4.40
2023-03-11T13:49:41.675Z,3.40
2023-03-11T13:52:14.471Z,2.00
2023-03-11T13:54:48.176Z,4.30
2023-03-11T13:57:22.592Z,3.40
2023-03-11T13:59:54.961Z,4.10
2023-03-11T14:02:24.563Z,4.10
2023-03-11T14:05:19.384Z,2.80
2023-03-11T14:07:47.557Z,3.20
2023-03-11T14:10:25.335Z,2.90
2023-03-11T14:13:05.373Z,3.70
2023-03-11T14:15:41.067Z,3.00
2023-03-11T14:18:28.403Z,2.30
2023-03-11T14:20:57.525Z,6.30
2023-03-11T14:23:28.597Z,4.10
2023-03-11T14:26:00.743Z,2.90
2023-03-11T14:28:30.567Z,3.50
2023-03-11T14:30:59.230Z,5.40
2023-03-11T14:33:27.280Z,2.40
2023-03-11T14:35:57.070Z,3.20
2023-03-11T14:38:26.312Z,3.10
2023-03-11T14:40:57.966Z,3.60
2023-03-11T14:43:27.571Z,3.60
2023-03-11T14:45:56.418Z,4.00
2023-03-11T14:48:46.196Z,4.60
2023-03-11T14:51:24.040Z,8.30
2023-03-11T14:53:52.101Z,4.60
2023-03-11T14:56:21.842Z,7.00
2023-03-11T14:59:06.967Z,5.70
2023-03-11T15:01:41.062Z,4.80
2023-03-11T15:04:09.384Z,5.10
2023-03-11T15:06:39.945Z,5.30
2023-03-11T15:09:10.864Z,5.80
2023-03-11T15:11:45.085Z,6.50
2023-03-11T15:14:19.392Z,5.80
2023-03-11T15:16:47.437Z,4.80
2023-03-11T15:19:27.758Z,4.40
2023-03-11T15:21:58.695Z,6.10
2023-03-11T15:24:28.604Z,5.10
2023-03-11T15:26:59.921Z,5.90
2023-03-11T15:29:28.763Z,5.80
2023-03-11T15:32:00.608Z,5.30
2023-03-11T15:34:28.993Z,6.80
2023-03-11T15:36:57.546Z,5.10
2023-03-11T15:39:42.267Z,5.50
2023-03-11T15:42:13.789Z,5.10
2023-03-11T15:44:44.171Z,5.80
2023-03-11T15:47:15.392Z,8.30
2023-03-11T15:49:43.332Z,4.50
2023-03-11T15:52:13.935Z,7.20
2023-03-11T15:54:47.338Z,6.00
2023-03-11T15:57:26.231Z,5.00
2023-03-11T15:59:55.471Z,5.30
2023-03-11T16:02:25.801Z,5.80
2023-03-11T16:04:54.725Z,8.00
2023-03-11T16:07:38.130Z,6.80
2023-03-11T16:10:07.306Z,7.70
2023-03-11T16:12:35.318Z,7.00
2023-03-11T16:15:04.314Z,5.20
2023-03-11T16:17:48.531Z,5.60
2023-03-11T16:20:18.841Z,5.70
2023-03-11T16:22:47.955Z,6.60
2023-03-11T16:25:27.277Z,8.60
2023-03-11T16:27:55.583Z,10.10
2023-03-11T16:30:24.314Z,10.00
2023-03-11T16:32:52.246Z,7.10
2023-03-11T16:35:20.342Z,7.90
2023-03-11T16:37:48.520Z,7.50
2023-03-11T16:40:18.045Z,8.40
2023-03-11T16:42:46.327Z,9.50
2023-03-11T16:45:15.303Z,5.70
2023-03-11T16:47:43.412Z,5.60
2023-03-11T16:50:12.333Z,6.10
2023-03-11T16:52:40.437Z,7.10
2023-03-11T16:55:08.553Z,6.80
2023-03-11T16:57:38.018Z,6.80
2023-03-11T17:00:07.011Z,7.10
2023-03-11T17:02:34.945Z,8.20
2023-03-11T17:05:06.531Z,10.10
2023-03-11T17:07:35.667Z,9.00
2023-03-11T17:10:05.397Z,7.80
2023-03-11T17:12:33.455Z,8.90
2023-03-11T17:15:01.791Z,10.40
2023-03-11T17:17:29.692Z,9.10
2023-03-11T17:19:57.509Z,10.10
2023-03-11T17:22:25.431Z,8.20
2023-03-11T17:24:56.576Z,8.90
2023-03-11T17:27:24.671Z,8.10
2023-03-11T17:29:54.698Z,8.80
2023-03-11T17:32:22.694Z,10.50
2023-03-11T17:34:50.809Z,7.40
2023-03-11T17:37:18.976Z,10.00
2023-03-11T17:39:46.867Z,13.20
2023-03-11T17:42:15.152Z,8.90
2023-03-11T17:44:51.501Z,9.60
2023-03-11T17:47:20.570Z,9.30
2023-03-11T17:49:49.426Z,11.60
2023-03-11T17:52:18.011Z,8.40
2023-03-11T17:54:46.002Z,6.70
2023-03-11T17:57:14.181Z,10.50
2023-03-11T17:59:41.997Z,10.20
2023-03-11T18:02:13.145Z,11.70
2023-03-11T18:04:43.474Z,9.20
2023-03-11T18:07:12.593Z,12.20
2023-03-11T18:09:40.805Z,12.90
2023-03-11T18:12:08.826Z,14.90
2023-03-11T18:14:37.056Z,10.70
2023-03-11T18:17:05.326Z,14.80
2023-03-11T18:19:34.028Z,15.10
2023-03-11T18:24:48.403Z,14.00
2023-03-11T18:27:16.666Z,16.70
2023-03-11T18:29:45.089Z,17.80
2023-03-11T18:32:13.215Z,11.70
2023-03-11T18:34:41.883Z,18.40
2023-03-11T18:37:09.971Z,15.10
2023-03-11T18:39:38.250Z,9.80
2023-03-11T18:42:06.573Z,8.60
2023-03-11T18:44:36.847Z,9.50
2023-03-11T18:47:05.514Z,12.00
2023-03-11T18:49:33.689Z,13.00
2023-03-11T18:52:01.930Z,12.30
2023-03-11T18:54:29.863Z,13.50
2023-03-11T18:56:57.911Z,12.00
2023-03-11T18:59:27.874Z,15.40
2023-03-11T19:01:56.738Z,12.30
2023-03-11T19:04:25.162Z,12.50
2023-03-11T19:06:53.235Z,13.60
2023-03-11T19:09:21.906Z,12.70
2023-03-11T19:11:50.112Z,14.20
2023-03-11T19:14:18.251Z,15.70
2023-03-11T19:16:46.397Z,15.70
2023-03-11T19:19:14.892Z,16.90
2023-03-11T19:21:43.887Z,16.90
2023-03-11T19:24:12.780Z,17.50
2023-03-11T19:26:45.422Z,16.00
2023-03-11T19:29:14.934Z,16.40
2023-03-11T19:31:44.006Z,13.50
2023-03-11T19:34:12.531Z,13.40
2023-03-11T19:36:40.813Z,13.80
2023-03-11T19:39:09.259Z,12.30
2023-03-11T19:41:37.414Z,13.10
2023-03-11T19:44:05.629Z,13.30
2023-03-11T19:46:35.002Z,10.80
2023-03-11T19:49:04.172Z,12.20
2023-03-11T19:51:46.384Z,10.30
2023-03-11T19:54:17.257Z,10.90
2023-03-11T19:56:45.932Z,9.80
2023-03-11T19:59:14.388Z,12.20
2023-03-11T20:01:43.202Z,11.90
2023-03-11T20:04:11.555Z,10.90
2023-03-11T20:06:40.068Z,9.60
2023-03-11T20:09:08.233Z,8.60
2023-03-11T20:11:40.518Z,10.90
2023-03-11T20:14:10.391Z,9.20
2023-03-11T20:16:39.349Z,9.40
2023-03-11T20:19:07.668Z,8.80
2023-03-11T20:21:39.503Z,10.40
2023-03-11T20:24:08.729Z,12.70
2023-03-11T20:26:37.817Z,10.90
2023-03-11T20:29:06.235Z,11.70
2023-03-11T20:31:35.009Z,14.00
2023-03-11T20:34:03.658Z,12.30
2023-03-11T20:36:33.260Z,12.20
2023-03-11T20:39:02.189Z,15.40
2023-03-11T20:41:34.159Z,14.30
2023-03-11T20:44:02.265Z,14.90
2023-03-11T20:46:31.572Z,16.40
2023-03-11T20:49:03.228Z,11.70
2023-03-11T20:51:31.307Z,10.50
2023-03-11T20:53:59.464Z,12.90
2023-03-11T20:59:32.594Z,13.60
2023-03-11T21:02:03.781Z,12.20
2023-03-11T21:04:32.098Z,11.30
2023-03-11T21:07:01.675Z,14.80
2023-03-11T21:09:30.311Z,12.00
2023-03-11T21:11:58.554Z,12.60
2023-03-11T21:14:26.745Z,10.30
2023-03-11T21:16:55.065Z,11.10
2023-03-11T21:19:23.554Z,11.30
2023-03-11T21:21:51.745Z,12.20
2023-03-11T21:24:19.930Z,12.20
2023-03-11T21:26:48.905Z,11.10
2023-03-11T21:29:16.928Z,11.00
2023-03-11T21:31:45.046Z,12.50
2023-03-11T21:34:13.443Z,9.70
2023-03-11T21:36:41.619Z,9.80
2023-03-11T21:39:09.875Z,15.00
2023-03-11T21:41:46.855Z,10.50
2023-03-11T21:44:15.322Z,8.20
2023-03-11T21:46:46.672Z,9.00
2023-03-11T21:49:15.514Z,10.70
2023-03-11T21:51:44.206Z,9.70
2023-03-11T21:54:13.148Z,10.40
2023-03-11T21:56:42.286Z,9.50
2023-03-11T21:59:10.843Z,7.80
2023-03-11T22:01:40.241Z,8.20
2023-03-11T22:04:10.328Z,8.90
2023-03-11T22:06:38.488Z,7.80
2023-03-11T22:09:06.547Z,7.20
2023-03-11T22:11:34.686Z,6.90
2023-03-11T22:14:02.795Z,7.70
2023-03-11T22:16:30.949Z,6.60
2023-03-11T22:18:59.305Z,8.70
2023-03-11T22:21:27.452Z,7.80
2023-03-11T22:23:55.902Z,7.40
2023-03-11T22:26:23.991Z,7.50
2023-03-11T22:28:52.977Z,9.30
2023-03-11T22:31:21.327Z,8.70
2023-03-11T22:33:49.323Z,10.20
2023-03-11T22:36:17.421Z,10.40
2023-03-11T22:38:45.609Z,8.40
2023-03-11T22:41:14.656Z,11.10
2023-03-11T22:43:42.732Z,10.50
2023-03-11T22:46:11.364Z,12.10
2023-03-11T22:48:39.475Z,9.70
2023-03-11T22:51:07.590Z,11.40
2023-03-11T22:53:35.600Z,14.20
2023-03-11T22:56:07.817Z,12.20
2023-03-11T22:58:35.978Z,14.40
2023-03-11T23:01:04.653Z,13.00
2023-03-11T23:03:33.343Z,13.00
2023-03-11T23:06:02.527Z,11.90
2023-03-11T23:08:30.535Z,11.50
2023-03-11T23:11:02.183Z,12.00
2023-03-11T23:13:30.907Z,11.30
2023-03-11T23:16:03.225Z,9.80
2023-03-11T23:18:31.316Z,13.50
2023-03-11T23:20:59.467Z,10.80
2023-03-11T23:29:59.334Z,10.10
2023-03-11T23:32:27.490Z,11.80
2023-03-11T23:35:13.100Z,9.60
2023-03-11T23:37:41.055Z,11.70
2023-03-11T23:40:11.636Z,8.00
2023-03-11T23:42:39.540Z,9.00
2023-03-11T23:45:08.025Z,10.20
2023-03-11T23:47:35.899Z,8.80
2023-03-11T23:50:04.025Z,12.80
2023-03-11T23:52:31.878Z,9.60
2023-03-11T23:55:00.431Z,8.20
2023-03-11T23:57:28.416Z,9.20
2023-03-11T23:59:56.325Z,8.20
